Simpsonville, Vermont
Current Conditions -  °F | °C
As of 2:54 PM on Monday 24 Nov 2014 (Local Time) from KVSF Reporting Station
Overcast Overcast  
Wind Chill: 62°   Ceiling: 2200
Heat Index: 62°   Visibility: 10mi
Dew Point: 57°   Wind: 9mph
Humidity: 84%   Direction: 190°S
Pressure: 29.49"   Gusts: NA
Location:  43.0642°N, 72.6668°W
Report Text: KVSF 241954Z AUTO 19008KT 10SM BKN022 OVC032 17/14 A2949 RMK AO2 SLP989 T01670139
Loading
Personal Weather Stations






























Interactive Weather Map New forecast layout! Learn more

10-Day Weather Forecast

Advertisements
Track Severe Weather on mobile